Time;durP1;ratioP1;P1;durP2;ratioP2;P2;SDS_P1;SDS_P2;PMS_P1;PMS_P2;Temp;Humidity;BMP_temperature;BMP_pressure;BME280_temperature;BME280_humidity;BME280_pressure;Samples;Min_cycle;Max_cycle;Signal;HPM_P1;HPM_P2
2023/08/02 00:01:04;;;;;;;4.68;2.22;;;;;;;;;;5063375;28;20028;-71
2023/08/02 00:03:30;;;;;;;3.00;1.80;;;;;;;;;;5055271;28;20112;-72
2023/08/02 00:05:59;;;;;;;3.78;2.40;;;;;;;;;;5059434;28;20032;-73
2023/08/02 00:08:26;;;;;;;3.65;2.17;;;;;;;;;;5062940;28;20420;-73
2023/08/02 00:10:52;;;;;;;4.68;2.33;;;;;;;;;;5054235;28;20451;-72
2023/08/02 00:13:18;;;;;;;2.90;2.30;;;;;;;;;;5056798;28;20035;-73
2023/08/02 00:15:45;;;;;;;4.50;2.25;;;;;;;;;;5052520;28;20047;-72
2023/08/02 00:18:11;;;;;;;4.28;2.03;;;;;;;;;;5059533;28;20037;-72
2023/08/02 00:20:40;;;;;;;4.10;1.65;;;;;;;;;;5052879;28;20083;-71
2023/08/02 00:23:06;;;;;;;4.35;2.00;;;;;;;;;;5052428;28;21284;-72
2023/08/02 00:25:33;;;;;;;4.22;1.98;;;;;;;;;;5053517;28;20139;-72
2023/08/02 00:27:59;;;;;;;3.95;1.90;;;;;;;;;;5067472;28;20980;-72
2023/08/02 00:30:25;;;;;;;3.58;2.00;;;;;;;;;;5062978;28;20029;-72
2023/08/02 00:32:51;;;;;;;2.08;1.70;;;;;;;;;;5043741;28;20029;-73
2023/08/02 00:35:17;;;;;;;2.00;1.60;;;;;;;;;;5056547;28;20108;-73
2023/08/02 00:37:45;;;;;;;3.08;1.70;;;;;;;;;;5054234;28;20036;-73
2023/08/02 00:40:11;;;;;;;1.60;1.50;;;;;;;;;;5054745;28;20025;-73
2023/08/02 00:42:37;;;;;;;2.97;1.63;;;;;;;;;;5051664;28;20762;-73
2023/08/02 00:45:03;;;;;;;2.63;1.67;;;;;;;;;;5043643;28;20514;-72
2023/08/02 00:47:31;;;;;;;1.63;1.30;;;;;;;;;;5054519;28;20028;-72
2023/08/02 00:49:57;;;;;;;1.73;1.50;;;;;;;;;;5066156;28;20040;-72
2023/08/02 00:52:23;;;;;;;2.13;1.52;;;;;;;;;;5048098;28;20048;-73
2023/08/02 00:54:49;;;;;;;2.10;1.50;;;;;;;;;;5050022;28;20515;-72
2023/08/02 00:57:16;;;;;;;1.50;1.40;;;;;;;;;;5048426;28;20033;-74
2023/08/02 00:59:42;;;;;;;1.88;1.30;;;;;;;;;;5066474;28;20120;-72
2023/08/02 01:02:08;;;;;;;1.55;1.23;;;;;;;;;;5066296;28;20037;-73
2023/08/02 01:04:36;;;;;;;1.50;1.40;;;;;;;;;;5072829;28;20020;-72
2023/08/02 01:07:08;;;;;;;3.58;1.55;;;;;;;;;;5055209;28;22057;-73
2023/08/02 01:09:50;;;;;;;1.27;1.20;;;;;;;;;;5070789;28;20033;-70
2023/08/02 01:12:18;;;;;;;1.55;1.45;;;;;;;;;;5064157;28;20037;-70
2023/08/02 01:14:49;;;;;;;1.83;1.30;;;;;;;;;;5058409;28;20052;-68
2023/08/02 01:17:15;;;;;;;1.27;1.17;;;;;;;;;;5055634;28;20025;-70
2023/08/02 01:19:45;;;;;;;1.08;1.08;;;;;;;;;;5061691;28;20056;-69
2023/08/02 01:22:11;;;;;;;4.45;1.30;;;;;;;;;;5049432;28;20553;-69
2023/08/02 01:24:37;;;;;;;1.42;1.33;;;;;;;;;;5068657;28;20124;-69
2023/08/02 01:27:10;;;;;;;1.38;1.10;;;;;;;;;;5051082;28;20032;-69
2023/08/02 01:29:38;;;;;;;1.15;1.15;;;;;;;;;;5067299;28;20037;-69
2023/08/02 01:32:06;;;;;;;2.08;1.40;;;;;;;;;;5061973;28;20315;-68
2023/08/02 01:34:32;;;;;;;1.33;1.33;;;;;;;;;;5073623;28;20069;-71
2023/08/02 01:36:59;;;;;;;1.23;1.23;;;;;;;;;;5055832;28;20033;-70
2023/08/02 01:39:25;;;;;;;2.47;1.40;;;;;;;;;;5059716;28;20088;-71
2023/08/02 01:41:51;;;;;;;3.00;1.23;;;;;;;;;;5062539;28;20695;-69
2023/08/02 01:44:17;;;;;;;1.17;1.17;;;;;;;;;;5057910;28;20348;-67
2023/08/02 01:46:43;;;;;;;1.10;1.10;;;;;;;;;;5056015;28;20471;-69
2023/08/02 01:49:09;;;;;;;1.27;1.20;;;;;;;;;;5069907;28;20012;-68
2023/08/02 01:51:35;;;;;;;3.53;1.58;;;;;;;;;;5064688;28;20535;-69
2023/08/02 01:54:02;;;;;;;1.30;1.20;;;;;;;;;;5061406;28;20317;-68
2023/08/02 01:56:28;;;;;;;1.90;1.33;;;;;;;;;;5055373;28;20423;-69
2023/08/02 01:58:54;;;;;;;1.30;1.25;;;;;;;;;;5062761;28;20097;-72
2023/08/02 02:01:20;;;;;;;1.73;1.20;;;;;;;;;;5064362;28;20383;-69
2023/08/02 02:03:46;;;;;;;1.02;1.02;;;;;;;;;;5057135;28;20020;-69
2023/08/02 02:06:12;;;;;;;1.27;1.17;;;;;;;;;;5063100;28;20036;-69
2023/08/02 02:08:38;;;;;;;1.30;1.30;;;;;;;;;;5065084;28;20484;-71
2023/08/02 02:11:04;;;;;;;1.02;1.00;;;;;;;;;;5067507;28;20024;-70
2023/08/02 02:13:31;;;;;;;2.35;1.30;;;;;;;;;;5059403;28;20507;-71
2023/08/02 02:15:57;;;;;;;1.10;1.10;;;;;;;;;;5062210;28;20107;-71
2023/08/02 02:18:23;;;;;;;1.00;1.00;;;;;;;;;;5052714;28;20555;-71
2023/08/02 02:20:49;;;;;;;1.27;1.27;;;;;;;;;;5061503;28;20035;-72
2023/08/02 02:23:15;;;;;;;2.50;2.30;;;;;;;;;;5058843;28;20048;-72
2023/08/02 02:25:41;;;;;;;3.58;1.25;;;;;;;;;;5069144;28;20032;-72
2023/08/02 02:28:07;;;;;;;2.85;1.38;;;;;;;;;;5057998;28;20114;-72
2023/08/02 02:30:33;;;;;;;1.55;1.45;;;;;;;;;;5061941;28;20126;-72
2023/08/02 02:33:00;;;;;;;1.73;1.40;;;;;;;;;;5058299;28;20035;-72
2023/08/02 02:35:27;;;;;;;1.80;1.23;;;;;;;;;;5053513;28;20109;-72
2023/08/02 02:37:53;;;;;;;2.13;1.40;;;;;;;;;;5049370;28;20031;-72
2023/08/02 02:40:19;;;;;;;1.85;1.20;;;;;;;;;;5059392;28;20477;-72
2023/08/02 02:42:45;;;;;;;3.05;1.20;;;;;;;;;;5065992;28;20028;-72
2023/08/02 02:45:14;;;;;;;3.28;1.50;;;;;;;;;;5053632;28;20028;-71
2023/08/02 02:47:40;;;;;;;2.50;1.42;;;;;;;;;;5058831;28;20043;-72
2023/08/02 02:50:07;;;;;;;2.22;1.55;;;;;;;;;;5057911;28;20035;-72
2023/08/02 02:52:33;;;;;;;2.38;1.50;;;;;;;;;;5073330;28;20028;-71
2023/08/02 02:54:59;;;;;;;1.67;1.58;;;;;;;;;;5059612;28;20062;-71
2023/08/02 02:57:25;;;;;;;5.43;1.95;;;;;;;;;;5066376;28;20452;-71
2023/08/02 02:59:52;;;;;;;1.70;1.60;;;;;;;;;;5061126;28;20177;-72
2023/08/02 03:02:18;;;;;;;1.60;1.50;;;;;;;;;;5069392;28;20502;-72
2023/08/02 03:04:44;;;;;;;1.98;1.77;;;;;;;;;;5056468;28;20028;-71
2023/08/02 03:07:10;;;;;;;1.92;1.70;;;;;;;;;;5060328;28;20029;-72
2023/08/02 03:09:36;;;;;;;3.03;1.80;;;;;;;;;;5047073;28;20052;-72
2023/08/02 03:12:02;;;;;;;3.83;2.33;;;;;;;;;;5058282;28;20063;-71
2023/08/02 03:14:28;;;;;;;4.82;2.22;;;;;;;;;;5053381;28;20029;-71
2023/08/02 03:16:54;;;;;;;5.47;2.20;;;;;;;;;;5045839;28;20052;-72
2023/08/02 03:19:20;;;;;;;2.40;1.92;;;;;;;;;;5047097;28;20094;-72
2023/08/02 03:21:47;;;;;;;1.75;1.60;;;;;;;;;;5057645;28;20075;-72
2023/08/02 03:24:13;;;;;;;3.03;1.70;;;;;;;;;;5052822;28;20032;-72
2023/08/02 03:26:39;;;;;;;2.90;1.83;;;;;;;;;;5055624;28;20020;-72
2023/08/02 03:29:05;;;;;;;2.25;1.40;;;;;;;;;;5056293;28;20536;-72
2023/08/02 03:31:32;;;;;;;1.60;1.50;;;;;;;;;;5059499;28;20024;-72
2023/08/02 03:33:58;;;;;;;1.95;1.70;;;;;;;;;;5061518;28;20110;-73
2023/08/02 03:36:24;;;;;;;2.10;1.90;;;;;;;;;;5053213;28;20032;-72
2023/08/02 03:38:50;;;;;;;1.92;1.63;;;;;;;;;;5053299;28;20027;-72
2023/08/02 03:41:16;;;;;;;2.40;1.90;;;;;;;;;;5052573;28;20114;-72
2023/08/02 03:43:42;;;;;;;1.80;1.70;;;;;;;;;;5063490;28;20021;-71
2023/08/02 03:46:08;;;;;;;1.63;1.52;;;;;;;;;;5053685;28;20902;-72
2023/08/02 03:48:35;;;;;;;3.00;1.80;;;;;;;;;;5048062;28;21051;-71
2023/08/02 03:51:01;;;;;;;2.05;1.80;;;;;;;;;;5052426;28;20443;-72
2023/08/02 03:53:29;;;;;;;2.45;1.92;;;;;;;;;;5057571;28;21830;-72
2023/08/02 03:55:56;;;;;;;2.53;1.83;;;;;;;;;;5077626;28;21512;-72
2023/08/02 03:58:22;;;;;;;3.53;2.03;;;;;;;;;;5072289;28;20024;-71
2023/08/02 04:00:48;;;;;;;3.15;2.28;;;;;;;;;;5069990;28;20111;-72
2023/08/02 04:03:14;;;;;;;2.35;1.90;;;;;;;;;;5068853;28;20093;-72
2023/08/02 04:05:41;;;;;;;2.13;1.65;;;;;;;;;;5050077;28;20033;-72
2023/08/02 04:08:13;;;;;;;1.70;1.60;;;;;;;;;;5066970;28;20035;-73
2023/08/02 04:10:42;;;;;;;5.65;1.80;;;;;;;;;;5062763;28;20040;-72
2023/08/02 04:13:08;;;;;;;1.55;1.45;;;;;;;;;;5056385;28;20082;-73
2023/08/02 04:15:35;;;;;;;2.33;1.98;;;;;;;;;;5048450;28;20033;-73
2023/08/02 04:18:02;;;;;;;7.15;2.30;;;;;;;;;;5050785;28;20494;-73
2023/08/02 04:20:28;;;;;;;2.88;1.80;;;;;;;;;;5053967;28;20068;-72
2023/08/02 04:22:54;;;;;;;3.63;1.55;;;;;;;;;;5049257;28;20040;-72
2023/08/02 04:25:20;;;;;;;2.45;1.70;;;;;;;;;;5056662;28;20035;-72
2023/08/02 04:27:46;;;;;;;2.60;1.63;;;;;;;;;;5050123;28;20111;-72
2023/08/02 04:30:13;;;;;;;2.00;1.90;;;;;;;;;;5059197;28;20020;-71
2023/08/02 04:32:39;;;;;;;4.38;1.92;;;;;;;;;;5063687;28;20075;-72
2023/08/02 04:35:05;;;;;;;1.60;1.50;;;;;;;;;;5052961;28;20073;-72
2023/08/02 04:37:31;;;;;;;2.05;1.85;;;;;;;;;;5049946;28;20267;-72
2023/08/02 04:39:57;;;;;;;1.70;1.60;;;;;;;;;;5061118;28;20029;-71
2023/08/02 04:42:26;;;;;;;2.47;1.50;;;;;;;;;;5055343;28;20562;-72
2023/08/02 04:44:52;;;;;;;3.30;1.77;;;;;;;;;;5053841;28;20497;-72
2023/08/02 04:47:18;;;;;;;2.40;2.20;;;;;;;;;;5061008;28;20442;-72
2023/08/02 04:49:44;;;;;;;3.22;1.67;;;;;;;;;;5051392;28;20033;-72
2023/08/02 04:52:10;;;;;;;2.03;1.70;;;;;;;;;;5060866;28;20021;-71
2023/08/02 04:54:36;;;;;;;2.13;1.85;;;;;;;;;;5058078;28;20028;-72
2023/08/02 04:57:02;;;;;;;2.25;1.80;;;;;;;;;;5058198;28;20985;-72
2023/08/02 04:59:29;;;;;;;3.85;2.53;;;;;;;;;;5066357;28;20031;-72
2023/08/02 05:01:55;;;;;;;2.33;1.70;;;;;;;;;;5059034;28;20028;-71
2023/08/02 05:04:21;;;;;;;4.10;1.75;;;;;;;;;;5061694;28;20535;-72
2023/08/02 05:06:47;;;;;;;3.35;1.70;;;;;;;;;;5054697;28;20059;-71
2023/08/02 05:09:13;;;;;;;2.22;1.90;;;;;;;;;;5060524;28;20435;-71
2023/08/02 05:11:42;;;;;;;2.97;1.70;;;;;;;;;;5068561;28;20035;-71
2023/08/02 05:14:08;;;;;;;3.50;1.70;;;;;;;;;;5060613;28;20028;-72
2023/08/02 05:16:36;;;;;;;1.73;1.63;;;;;;;;;;5060961;28;20029;-71
2023/08/02 05:19:03;;;;;;;4.53;1.73;;;;;;;;;;5060075;28;20082;-72
2023/08/02 05:21:33;;;;;;;1.67;1.48;;;;;;;;;;5055962;28;20131;-73
2023/08/02 05:23:59;;;;;;;1.98;1.75;;;;;;;;;;5054975;28;20548;-73
2023/08/02 05:26:25;;;;;;;2.10;1.70;;;;;;;;;;5059850;28;20652;-72
2023/08/02 05:28:51;;;;;;;2.40;1.50;;;;;;;;;;5057897;28;20025;-72
2023/08/02 05:31:17;;;;;;;1.67;1.38;;;;;;;;;;5050320;28;20036;-72
2023/08/02 05:33:44;;;;;;;1.65;1.48;;;;;;;;;;5059500;28;20515;-72
2023/08/02 05:36:14;;;;;;;1.88;1.55;;;;;;;;;;5057766;28;20086;-71
2023/08/02 05:38:41;;;;;;;3.00;2.17;;;;;;;;;;5054745;28;20044;-71
2023/08/02 05:41:07;;;;;;;1.77;1.50;;;;;;;;;;5057400;28;20020;-71
2023/08/02 05:43:33;;;;;;;1.50;1.40;;;;;;;;;;5055982;28;20033;-71
2023/08/02 05:45:59;;;;;;;1.80;1.42;;;;;;;;;;5057240;28;20029;-71
2023/08/02 05:48:26;;;;;;;2.63;1.58;;;;;;;;;;5054137;28;20025;-71
2023/08/02 05:50:52;;;;;;;1.42;1.38;;;;;;;;;;5067485;28;20025;-72
2023/08/02 05:53:19;;;;;;;1.83;1.40;;;;;;;;;;5052116;28;20059;-72
2023/08/02 05:55:45;;;;;;;2.13;1.60;;;;;;;;;;5056196;28;20025;-69
2023/08/02 05:58:11;;;;;;;1.88;1.50;;;;;;;;;;5051527;28;20056;-71
2023/08/02 06:00:37;;;;;;;1.92;1.30;;;;;;;;;;5062567;28;20032;-71
2023/08/02 06:03:03;;;;;;;2.15;1.50;;;;;;;;;;5056281;28;20033;-71
2023/08/02 06:05:29;;;;;;;3.35;1.73;;;;;;;;;;5064675;28;20024;-71
2023/08/02 06:07:55;;;;;;;2.25;1.40;;;;;;;;;;5059383;28;20025;-72
2023/08/02 06:10:21;;;;;;;1.48;1.38;;;;;;;;;;5052549;28;20052;-71
2023/08/02 06:12:48;;;;;;;2.05;1.20;;;;;;;;;;5054333;28;20029;-71
2023/08/02 06:15:14;;;;;;;1.40;1.30;;;;;;;;;;5064827;28;20040;-71
2023/08/02 06:17:40;;;;;;;2.55;1.40;;;;;;;;;;5057026;28;20465;-72
2023/08/02 06:20:07;;;;;;;1.75;1.42;;;;;;;;;;5055591;28;20051;-71
2023/08/02 06:22:33;;;;;;;3.83;1.70;;;;;;;;;;5056183;28;20426;-71
2023/08/02 06:24:59;;;;;;;2.67;1.48;;;;;;;;;;5061584;28;20036;-73
2023/08/02 06:27:25;;;;;;;1.40;1.30;;;;;;;;;;5056324;28;20047;-71
2023/08/02 06:29:51;;;;;;;3.30;1.48;;;;;;;;;;5054580;28;20032;-71
2023/08/02 06:32:17;;;;;;;2.63;1.33;;;;;;;;;;5053662;28;20064;-74
2023/08/02 06:34:44;;;;;;;1.60;1.50;;;;;;;;;;5055629;28;20075;-72
2023/08/02 06:37:10;;;;;;;1.60;1.50;;;;;;;;;;5052525;28;20040;-69
2023/08/02 06:39:36;;;;;;;2.55;1.50;;;;;;;;;;5042393;28;20079;-69
2023/08/02 06:42:02;;;;;;;1.70;1.40;;;;;;;;;;5050182;28;20621;-71
2023/08/02 06:44:28;;;;;;;2.13;1.50;;;;;;;;;;5051948;28;20083;-71
2023/08/02 06:46:54;;;;;;;3.97;1.67;;;;;;;;;;5051438;28;20033;-73
2023/08/02 06:49:20;;;;;;;4.50;1.90;;;;;;;;;;5052740;28;20031;-74
2023/08/02 06:51:47;;;;;;;3.28;1.80;;;;;;;;;;5051295;28;20025;-73
2023/08/02 06:54:13;;;;;;;1.70;1.60;;;;;;;;;;5050726;28;20025;-72
2023/08/02 06:56:39;;;;;;;5.50;1.70;;;;;;;;;;5049957;28;20099;-73
2023/08/02 06:59:05;;;;;;;2.20;1.92;;;;;;;;;;5053309;28;20073;-73
2023/08/02 07:01:31;;;;;;;1.60;1.50;;;;;;;;;;5051660;28;20032;-72
2023/08/02 07:03:57;;;;;;;1.63;1.52;;;;;;;;;;5049385;28;20022;-70
2023/08/02 07:06:23;;;;;;;2.55;1.98;;;;;;;;;;5055128;28;20086;-72
2023/08/02 07:08:50;;;;;;;1.55;1.40;;;;;;;;;;5044121;28;20032;-71
2023/08/02 07:11:17;;;;;;;2.55;1.70;;;;;;;;;;5054236;28;20916;-71
2023/08/02 07:13:44;;;;;;;1.65;1.50;;;;;;;;;;5049437;28;20112;-71
2023/08/02 07:16:10;;;;;;;1.40;1.30;;;;;;;;;;5053102;28;20024;-72
2023/08/02 07:18:37;;;;;;;1.90;1.50;;;;;;;;;;5052239;28;20065;-71
2023/08/02 07:21:06;;;;;;;2.25;1.70;;;;;;;;;;5052683;28;20120;-72
2023/08/02 07:23:33;;;;;;;1.73;1.60;;;;;;;;;;5050132;28;20099;-73
2023/08/02 07:25:59;;;;;;;2.15;1.33;;;;;;;;;;5055087;28;20032;-73
2023/08/02 07:28:25;;;;;;;1.15;1.15;;;;;;;;;;5067075;28;20187;-73
2023/08/02 07:30:51;;;;;;;1.50;1.40;;;;;;;;;;5054698;28;20384;-73
2023/08/02 07:33:17;;;;;;;2.40;1.33;;;;;;;;;;5050744;28;20040;-73
2023/08/02 07:35:46;;;;;;;1.30;1.20;;;;;;;;;;5053117;28;20091;-73
2023/08/02 07:38:12;;;;;;;1.40;1.30;;;;;;;;;;5054298;28;20039;-74
2023/08/02 07:40:38;;;;;;;1.35;1.25;;;;;;;;;;5052797;28;20036;-73
2023/08/02 07:43:04;;;;;;;1.05;1.05;;;;;;;;;;5048626;28;20056;-73
2023/08/02 07:45:30;;;;;;;1.33;1.23;;;;;;;;;;5054524;28;20021;-73
2023/08/02 07:47:56;;;;;;;1.95;1.38;;;;;;;;;;5053029;28;20046;-73
2023/08/02 07:50:23;;;;;;;1.40;1.30;;;;;;;;;;5047861;28;20033;-73
2023/08/02 07:52:49;;;;;;;3.40;1.40;;;;;;;;;;5044680;28;20104;-73
2023/08/02 07:55:15;;;;;;;1.20;1.20;;;;;;;;;;5051999;28;20043;-73
2023/08/02 07:57:41;;;;;;;5.18;1.48;;;;;;;;;;5047318;28;20031;-73
2023/08/02 08:00:08;;;;;;;2.50;1.40;;;;;;;;;;5050151;28;20036;-73
2023/08/02 08:02:34;;;;;;;1.30;1.20;;;;;;;;;;5052968;28;20035;-73
2023/08/02 08:05:00;;;;;;;1.50;1.30;;;;;;;;;;5053665;28;20187;-72
2023/08/02 08:07:29;;;;;;;1.55;1.13;;;;;;;;;;5055255;28;20051;-72
2023/08/02 08:09:55;;;;;;;1.63;1.50;;;;;;;;;;5051145;28;20020;-72
2023/08/02 08:12:21;;;;;;;1.45;1.35;;;;;;;;;;5056633;28;20039;-73
2023/08/02 08:14:47;;;;;;;2.08;1.08;;;;;;;;;;5050607;28;20059;-72
2023/08/02 08:17:13;;;;;;;1.88;1.10;;;;;;;;;;5055732;28;20040;-72
2023/08/02 08:19:39;;;;;;;1.40;1.30;;;;;;;;;;5052339;28;20041;-73
2023/08/02 08:22:05;;;;;;;1.50;1.40;;;;;;;;;;5054548;28;20060;-73
2023/08/02 08:24:32;;;;;;;3.45;1.30;;;;;;;;;;5047741;28;20459;-73
2023/08/02 08:26:58;;;;;;;1.10;1.10;;;;;;;;;;5052721;28;20069;-73
2023/08/02 08:29:24;;;;;;;1.50;1.40;;;;;;;;;;5051717;28;20549;-73
2023/08/02 08:31:50;;;;;;;2.55;1.50;;;;;;;;;;5054259;28;20024;-72
2023/08/02 08:34:16;;;;;;;1.38;1.27;;;;;;;;;;5053879;28;20063;-73
2023/08/02 08:36:42;;;;;;;0.90;0.90;;;;;;;;;;5051937;28;20036;-73
2023/08/02 08:39:08;;;;;;;1.55;1.42;;;;;;;;;;5058718;28;20105;-72
2023/08/02 08:41:34;;;;;;;2.38;1.50;;;;;;;;;;5051815;28;20040;-73
2023/08/02 08:44:01;;;;;;;1.02;1.02;;;;;;;;;;5071774;28;20027;-72
2023/08/02 08:46:30;;;;;;;1.15;1.15;;;;;;;;;;5059181;28;20118;-72
2023/08/02 08:49:00;;;;;;;1.30;1.30;;;;;;;;;;5052507;28;20849;-73
2023/08/02 08:51:27;;;;;;;1.92;1.40;;;;;;;;;;5054489;28;20089;-74
2023/08/02 08:53:54;;;;;;;2.30;1.38;;;;;;;;;;5055801;28;20024;-71
2023/08/02 08:56:24;;;;;;;1.48;1.38;;;;;;;;;;5058195;28;20036;-74
2023/08/02 08:58:50;;;;;;;1.50;1.40;;;;;;;;;;5061487;28;20058;-72
2023/08/02 09:01:17;;;;;;;2.10;1.60;;;;;;;;;;5057097;28;20036;-70
2023/08/02 09:03:45;;;;;;;4.97;1.70;;;;;;;;;;5058066;28;20359;-72
2023/08/02 09:06:13;;;;;;;4.22;1.90;;;;;;;;;;5058469;28;20413;-70
2023/08/02 09:08:43;;;;;;;5.20;2.10;;;;;;;;;;5057546;28;20646;-72
2023/08/02 09:11:09;;;;;;;3.47;1.92;;;;;;;;;;5058631;28;20046;-72
2023/08/02 09:13:35;;;;;;;6.20;2.10;;;;;;;;;;5072091;28;20043;-72
2023/08/02 09:16:09;;;;;;;3.30;1.95;;;;;;;;;;5066417;28;20028;-72
2023/08/02 09:18:36;;;;;;;5.50;2.30;;;;;;;;;;5072515;28;20028;-72
2023/08/02 09:21:03;;;;;;;4.45;2.13;;;;;;;;;;5059146;28;20035;-72
2023/08/02 09:23:29;;;;;;;2.95;2.00;;;;;;;;;;5056593;28;20028;-72
2023/08/02 09:26:14;;;;;;;4.15;2.13;;;;;;;;;;5057291;28;20028;-73
2023/08/02 09:28:40;;;;;;;5.47;2.00;;;;;;;;;;5056387;28;20492;-72
2023/08/02 09:31:16;;;;;;;4.90;2.42;;;;;;;;;;5052008;28;20392;-72
2023/08/02 09:33:49;;;;;;;4.40;2.03;;;;;;;;;;5072024;28;20037;-72
2023/08/02 09:36:22;;;;;;;5.43;2.55;;;;;;;;;;5053300;28;20041;-72
2023/08/02 09:38:58;;;;;;;5.88;2.13;;;;;;;;;;5058131;28;20054;-72
2023/08/02 09:41:25;;;;;;;2.33;2.08;;;;;;;;;;5043205;28;20090;-72
2023/08/02 09:43:51;;;;;;;3.38;2.30;;;;;;;;;;5056387;28;20090;-72
2023/08/02 09:46:26;;;;;;;3.00;2.65;;;;;;;;;;5056908;28;20052;-71
2023/08/02 09:48:52;;;;;;;3.08;2.60;;;;;;;;;;5057517;28;20465;-72
2023/08/02 09:51:19;;;;;;;4.05;2.65;;;;;;;;;;5054733;28;20036;-72
2023/08/02 09:53:55;;;;;;;5.45;2.63;;;;;;;;;;5056138;28;20032;-71
2023/08/02 09:56:24;;;;;;;6.10;2.70;;;;;;;;;;5053450;28;20029;-71
2023/08/02 09:58:55;;;;;;;7.13;2.70;;;;;;;;;;5055268;28;20031;-72
2023/08/02 10:01:24;;;;;;;5.20;2.90;;;;;;;;;;5053749;28;20037;-72
2023/08/02 10:03:57;;;;;;;5.60;2.70;;;;;;;;;;5072975;28;20684;-71
2023/08/02 10:06:32;;;;;;;3.55;2.67;;;;;;;;;;5052682;28;20035;-72
2023/08/02 10:09:02;;;;;;;5.35;2.83;;;;;;;;;;5056617;28;20027;-71
2023/08/02 10:11:29;;;;;;;9.38;3.55;;;;;;;;;;5055941;28;20036;-72
2023/08/02 10:13:55;;;;;;;4.88;2.75;;;;;;;;;;5055014;28;20033;-72
2023/08/02 10:16:23;;;;;;;4.10;3.25;;;;;;;;;;5056697;28;20032;-72
2023/08/02 10:18:52;;;;;;;5.85;2.63;;;;;;;;;;5057156;28;20456;-69
2023/08/02 10:21:19;;;;;;;5.13;2.90;;;;;;;;;;5056223;28;20033;-69
2023/08/02 10:23:46;;;;;;;4.88;3.10;;;;;;;;;;5057061;28;20095;-69
2023/08/02 10:26:12;;;;;;;5.72;2.78;;;;;;;;;;5055852;28;20064;-69
2023/08/02 10:28:40;;;;;;;5.25;3.10;;;;;;;;;;5053577;28;20505;-68
2023/08/02 10:31:08;;;;;;;4.05;2.40;;;;;;;;;;5052986;28;20419;-68
2023/08/02 10:33:34;;;;;;;10.13;3.40;;;;;;;;;;5052932;28;20711;-69
2023/08/02 10:36:02;;;;;;;8.38;2.70;;;;;;;;;;5054515;28;20396;-69
2023/08/02 10:38:28;;;;;;;3.83;2.22;;;;;;;;;;5052276;28;20314;-69
2023/08/02 10:41:02;;;;;;;6.10;2.35;;;;;;;;;;5050172;28;20036;-69
2023/08/02 10:43:28;;;;;;;4.30;2.30;;;;;;;;;;5048025;28;20162;-69
2023/08/02 10:46:13;;;;;;;4.25;2.33;;;;;;;;;;5057444;28;20029;-69
2023/08/02 10:48:39;;;;;;;4.55;2.40;;;;;;;;;;5053790;28;20051;-68
2023/08/02 10:51:05;;;;;;;3.65;2.38;;;;;;;;;;5054753;28;20035;-69
2023/08/02 10:53:32;;;;;;;4.57;2.83;;;;;;;;;;5052239;28;20639;-69
2023/08/02 10:56:05;;;;;;;6.57;2.78;;;;;;;;;;5068471;28;20039;-69
2023/08/02 10:58:53;;;;;;;3.67;2.85;;;;;;;;;;5054035;28;20670;-70
2023/08/02 11:01:19;;;;;;;6.82;3.60;;;;;;;;;;5061691;28;20120;-69
2023/08/02 11:03:46;;;;;;;4.85;2.90;;;;;;;;;;5052870;28;20118;-69
2023/08/02 11:06:28;;;;;;;3.88;2.63;;;;;;;;;;5055347;28;20685;-70
2023/08/02 11:08:54;;;;;;;3.95;2.60;;;;;;;;;;5051453;28;20024;-70
2023/08/02 11:11:30;;;;;;;2.90;2.33;;;;;;;;;;5053728;28;20024;-69
2023/08/02 11:13:56;;;;;;;2.53;2.33;;;;;;;;;;5069576;28;20040;-70
2023/08/02 11:16:22;;;;;;;4.95;2.40;;;;;;;;;;5057309;28;20530;-70
2023/08/02 11:18:49;;;;;;;3.08;2.05;;;;;;;;;;5052584;28;20195;-70
2023/08/02 11:21:16;;;;;;;3.67;2.28;;;;;;;;;;5056187;28;20056;-70
2023/08/02 11:23:42;;;;;;;3.72;2.45;;;;;;;;;;5054145;28;20094;-70
2023/08/02 11:26:08;;;;;;;2.70;2.30;;;;;;;;;;5058515;28;20059;-70
2023/08/02 11:28:38;;;;;;;2.20;1.98;;;;;;;;;;5051086;28;20024;-69
2023/08/02 11:31:05;;;;;;;2.20;2.00;;;;;;;;;;5054570;28;20488;-69
2023/08/02 11:33:32;;;;;;;2.20;2.00;;;;;;;;;;5053251;28;20597;-68
2023/08/02 11:35:58;;;;;;;2.15;1.95;;;;;;;;;;5054741;28;20032;-68
2023/08/02 11:38:27;;;;;;;2.30;2.10;;;;;;;;;;5053494;28;20032;-68
2023/08/02 11:40:53;;;;;;;3.80;2.15;;;;;;;;;;5045573;28;20121;-68
2023/08/02 11:43:19;;;;;;;3.00;2.70;;;;;;;;;;5052837;28;20028;-68
2023/08/02 11:45:47;;;;;;;3.22;2.60;;;;;;;;;;5072156;28;20483;-68
2023/08/02 11:48:25;;;;;;;3.25;2.85;;;;;;;;;;5047050;28;20036;-68
2023/08/02 11:50:53;;;;;;;6.30;3.80;;;;;;;;;;5053523;28;20044;-69
2023/08/02 11:53:19;;;;;;;4.38;3.00;;;;;;;;;;5053693;28;20028;-69
2023/08/02 11:55:46;;;;;;;4.50;3.50;;;;;;;;;;5055341;28;20078;-69
2023/08/02 11:58:12;;;;;;;6.93;3.40;;;;;;;;;;5053467;28;20024;-69
2023/08/02 12:00:38;;;;;;;5.82;3.40;;;;;;;;;;5054376;28;20678;-69
2023/08/02 12:03:10;;;;;;;4.50;3.65;;;;;;;;;;5046992;28;20055;-69
2023/08/02 12:05:36;;;;;;;3.45;3.15;;;;;;;;;;5050981;28;20039;-69
2023/08/02 12:08:12;;;;;;;6.25;3.65;;;;;;;;;;5067426;28;20047;-69
2023/08/02 12:10:38;;;;;;;4.82;3.58;;;;;;;;;;5052472;28;20090;-69
2023/08/02 12:13:14;;;;;;;4.00;3.10;;;;;;;;;;5049492;28;20107;-69
2023/08/02 12:15:40;;;;;;;4.88;3.80;;;;;;;;;;5052723;28;20036;-70
2023/08/02 12:18:07;;;;;;;5.00;4.13;;;;;;;;;;5051265;28;20028;-69
2023/08/02 12:20:34;;;;;;;3.72;3.05;;;;;;;;;;5052027;28;20052;-69
2023/08/02 12:23:00;;;;;;;4.22;3.65;;;;;;;;;;5068745;28;20041;-70
2023/08/02 12:25:26;;;;;;;4.65;3.38;;;;;;;;;;5047754;28;20495;-68
2023/08/02 12:28:08;;;;;;;3.88;3.08;;;;;;;;;;5050054;28;20066;-69
2023/08/02 12:30:34;;;;;;;3.85;2.60;;;;;;;;;;5066774;28;20032;-68
2023/08/02 12:33:00;;;;;;;2.72;2.47;;;;;;;;;;5055044;28;20140;-68
2023/08/02 12:35:27;;;;;;;3.20;2.20;;;;;;;;;;5050085;28;20056;-68
2023/08/02 12:37:53;;;;;;;2.55;1.92;;;;;;;;;;5054306;28;20028;-69
2023/08/02 12:40:19;;;;;;;2.40;1.92;;;;;;;;;;5045486;28;20036;-69
2023/08/02 12:42:45;;;;;;;2.15;1.83;;;;;;;;;;5067208;28;20039;-69
2023/08/02 12:45:12;;;;;;;2.25;1.90;;;;;;;;;;5049924;28;20028;-69
2023/08/02 12:47:38;;;;;;;2.45;2.25;;;;;;;;;;5051937;28;20032;-69
2023/08/02 12:50:04;;;;;;;2.42;1.92;;;;;;;;;;5049879;28;20502;-70
2023/08/02 12:52:30;;;;;;;2.35;1.95;;;;;;;;;;5047571;28;20504;-70
2023/08/02 12:54:56;;;;;;;2.72;2.13;;;;;;;;;;5046097;28;20029;-70
2023/08/02 12:57:22;;;;;;;2.55;2.05;;;;;;;;;;5048948;28;20047;-70
2023/08/02 12:59:48;;;;;;;2.95;2.25;;;;;;;;;;5050407;28;20432;-70
2023/08/02 13:02:15;;;;;;;3.03;2.10;;;;;;;;;;5050426;28;20041;-70
2023/08/02 13:04:41;;;;;;;2.67;2.28;;;;;;;;;;5068128;28;20033;-71
2023/08/02 13:07:07;;;;;;;3.10;2.22;;;;;;;;;;5071138;28;20021;-70
2023/08/02 13:09:34;;;;;;;2.55;1.95;;;;;;;;;;5049191;28;20429;-70
2023/08/02 13:12:00;;;;;;;2.20;2.00;;;;;;;;;;5054009;28;20032;-70
2023/08/02 13:14:27;;;;;;;2.00;1.90;;;;;;;;;;5050824;28;20566;-70
2023/08/02 13:16:53;;;;;;;4.43;2.00;;;;;;;;;;5051968;28;20029;-71
2023/08/02 13:19:19;;;;;;;2.75;1.70;;;;;;;;;;5053598;28;20111;-70
2023/08/02 13:21:45;;;;;;;3.53;2.10;;;;;;;;;;5048646;28;20869;-70
2023/08/02 13:24:11;;;;;;;3.10;2.20;;;;;;;;;;5050947;28;20483;-70
2023/08/02 13:26:37;;;;;;;4.20;2.30;;;;;;;;;;5054586;28;20032;-71
2023/08/02 13:29:03;;;;;;;3.38;2.55;;;;;;;;;;5055151;28;20024;-70
2023/08/02 13:31:30;;;;;;;2.47;2.20;;;;;;;;;;5054315;28;20105;-70
2023/08/02 13:33:56;;;;;;;3.65;2.38;;;;;;;;;;5058462;28;20044;-71
2023/08/02 13:36:22;;;;;;;3.25;2.28;;;;;;;;;;5055939;28;20163;-71
2023/08/02 13:38:48;;;;;;;3.05;2.75;;;;;;;;;;5052311;28;20105;-70
2023/08/02 13:41:14;;;;;;;4.30;2.22;;;;;;;;;;5057177;28;20043;-70
2023/08/02 13:43:40;;;;;;;2.83;1.92;;;;;;;;;;5057056;28;20351;-70
2023/08/02 13:46:06;;;;;;;2.60;2.20;;;;;;;;;;5056850;28;20139;-70
2023/08/02 13:48:32;;;;;;;3.30;2.38;;;;;;;;;;5058224;28;20999;-71
2023/08/02 13:50:58;;;;;;;3.78;2.20;;;;;;;;;;5071849;28;21387;-70
2023/08/02 13:53:24;;;;;;;4.05;2.40;;;;;;;;;;5060525;28;20079;-70
2023/08/02 13:55:51;;;;;;;2.67;2.10;;;;;;;;;;5060335;28;20102;-70
2023/08/02 13:58:17;;;;;;;3.45;2.70;;;;;;;;;;5057417;28;20349;-70
2023/08/02 14:00:43;;;;;;;4.43;2.60;;;;;;;;;;5059381;28;20033;-72
2023/08/02 14:03:09;;;;;;;3.47;2.40;;;;;;;;;;5067576;28;21105;-73
2023/08/02 14:05:35;;;;;;;3.60;2.60;;;;;;;;;;5059718;28;20071;-71
2023/08/02 14:08:01;;;;;;;2.80;2.50;;;;;;;;;;5056388;28;20401;-71
2023/08/02 14:10:27;;;;;;;3.20;2.80;;;;;;;;;;5054700;28;20369;-72
2023/08/02 14:12:54;;;;;;;3.42;2.40;;;;;;;;;;5057538;28;20060;-71
2023/08/02 14:15:20;;;;;;;3.80;2.75;;;;;;;;;;5056129;28;20068;-72
2023/08/02 14:17:47;;;;;;;4.82;2.70;;;;;;;;;;5059845;28;20040;-72
2023/08/02 14:20:15;;;;;;;3.63;3.15;;;;;;;;;;5059093;28;20028;-71
2023/08/02 14:22:41;;;;;;;3.25;2.95;;;;;;;;;;5057564;28;20043;-70
2023/08/02 14:25:08;;;;;;;4.40;2.80;;;;;;;;;;5058366;28;20028;-71
2023/08/02 14:27:34;;;;;;;3.25;2.53;;;;;;;;;;5043516;28;20032;-71
2023/08/02 14:30:00;;;;;;;6.50;2.80;;;;;;;;;;5045501;28;20028;-70
2023/08/02 14:32:26;;;;;;;4.22;2.70;;;;;;;;;;5042820;28;20035;-71
2023/08/02 14:34:52;;;;;;;3.08;2.70;;;;;;;;;;5044532;28;21644;-68
2023/08/02 14:37:18;;;;;;;5.82;3.10;;;;;;;;;;5044072;28;20111;-68
2023/08/02 14:39:44;;;;;;;5.45;2.72;;;;;;;;;;5045860;28;20031;-68
2023/08/02 14:42:11;;;;;;;3.78;2.50;;;;;;;;;;5043843;28;20032;-68